Time;durP1;ratioP1;P1;durP2;ratioP2;P2;SDS_P1;SDS_P2;PMS_P1;PMS_P2;Temp;Humidity;BMP_temperature;BMP_pressure;BME280_temperature;BME280_humidity;BME280_pressure;Samples;Min_cycle;Max_cycle;Signal;HPM_P1;HPM_P2
2022/02/27 00:01:13;;;;;;;10.10;6.35;;;2.30;99.90;;;;;;4953597;29;20234;-85
2022/02/27 00:03:40;;;;;;;7.85;6.35;;;2.20;99.90;;;;;;4956455;29;20199;-85
2022/02/27 00:06:06;;;;;;;15.63;6.63;;;2.20;99.90;;;;;;4954490;29;20211;-85
2022/02/27 00:08:33;;;;;;;13.82;6.90;;;2.30;99.90;;;;;;4956503;29;20266;-84
2022/02/27 00:11:00;;;;;;;10.35;6.65;;;2.20;99.90;;;;;;4955778;29;20227;-83
2022/02/27 00:13:27;;;;;;;12.18;7.40;;;2.10;99.90;;;;;;4956463;29;20217;-85
2022/02/27 00:15:53;;;;;;;10.95;7.00;;;2.20;99.90;;;;;;4956490;29;20227;-86
2022/02/27 00:18:21;;;;;;;11.98;8.10;;;2.10;99.90;;;;;;4949789;29;20312;-86
2022/02/27 00:20:48;;;;;;;7.82;5.90;;;2.00;99.90;;;;;;4960901;28;20270;-87
2022/02/27 00:23:14;;;;;;;24.77;11.85;;;2.00;99.90;;;;;;4957617;29;20207;-85
2022/02/27 00:25:41;;;;;;;14.13;7.38;;;2.00;99.90;;;;;;4957632;29;20227;-86
2022/02/27 00:28:08;;;;;;;13.45;8.38;;;1.90;99.90;;;;;;4954846;29;20234;-86
2022/02/27 00:30:36;;;;;;;17.63;8.32;;;2.00;99.90;;;;;;4955594;29;20314;-83
2022/02/27 00:33:03;;;;;;;13.68;6.55;;;2.00;99.90;;;;;;4955453;29;20211;-83
2022/02/27 00:35:32;;;;;;;10.05;6.65;;;2.00;99.90;;;;;;4955000;29;20215;-84
2022/02/27 00:38:00;;;;;;;11.27;7.38;;;2.00;99.90;;;;;;4955867;29;20237;-85
2022/02/27 00:40:27;;;;;;;9.18;7.18;;;1.90;99.90;;;;;;4954022;29;20241;-84
2022/02/27 00:42:53;;;;;;;11.05;6.85;;;1.90;99.90;;;;;;4956394;29;20230;-83
2022/02/27 00:45:20;;;;;;;10.25;7.35;;;1.90;99.90;;;;;;4960146;29;20220;-83
2022/02/27 00:47:46;;;;;;;10.32;8.20;;;1.90;99.90;;;;;;4959922;29;20207;-86
2022/02/27 00:50:13;;;;;;;10.95;7.85;;;2.00;99.90;;;;;;4958834;29;20231;-83
2022/02/27 00:52:42;;;;;;;18.70;8.93;;;1.80;99.90;;;;;;4960295;29;20207;-83
2022/02/27 00:55:09;;;;;;;10.18;7.95;;;1.70;99.90;;;;;;4959912;29;20276;-83
2022/02/27 00:57:36;;;;;;;9.95;8.07;;;1.70;99.90;;;;;;4958431;29;20263;-84
2022/02/27 01:00:05;;;;;;;12.50;7.97;;;2.00;99.90;;;;;;4954202;29;20212;-85
2022/02/27 01:02:32;;;;;;;16.73;8.57;;;1.70;99.90;;;;;;4953365;29;20226;-85
2022/02/27 01:04:59;;;;;;;9.45;7.88;;;1.70;99.90;;;;;;4949493;29;20207;-86
2022/02/27 01:07:26;;;;;;;15.63;8.70;;;1.60;99.90;;;;;;4948579;29;20203;-86
2022/02/27 01:09:54;;;;;;;11.80;8.50;;;1.70;99.90;;;;;;4948504;29;20222;-85
2022/02/27 01:12:20;;;;;;;12.30;7.35;;;1.70;99.90;;;;;;4950701;29;20208;-86
2022/02/27 01:14:47;;;;;;;14.65;8.70;;;1.70;99.90;;;;;;4952058;29;20215;-85
2022/02/27 01:17:14;;;;;;;15.02;7.88;;;1.50;99.90;;;;;;4947422;29;20215;-85
2022/02/27 01:19:41;;;;;;;11.85;7.05;;;1.40;99.90;;;;;;4946929;29;20211;-86
2022/02/27 01:22:08;;;;;;;15.40;7.65;;;1.50;99.90;;;;;;4949256;29;20227;-85
2022/02/27 01:24:34;;;;;;;12.90;8.52;;;1.50;99.90;;;;;;4950477;29;20295;-85
2022/02/27 01:27:03;;;;;;;15.57;7.97;;;1.50;99.90;;;;;;4952407;29;20221;-85
2022/02/27 01:29:29;;;;;;;12.57;7.93;;;2.20;99.90;;;;;;4959711;29;20214;-84
2022/02/27 01:31:56;;;;;;;10.18;8.52;;;1.30;99.90;;;;;;4960205;29;20221;-85
2022/02/27 01:34:23;;;;;;;15.55;8.57;;;1.00;99.90;;;;;;4959666;28;20222;-84
2022/02/27 01:36:49;;;;;;;11.88;7.35;;;1.50;99.90;;;;;;4957458;29;20223;-86
2022/02/27 01:39:16;;;;;;;16.77;9.68;;;1.50;99.90;;;;;;4956003;29;20219;-84
2022/02/27 01:41:45;;;;;;;15.18;9.50;;;1.60;99.90;;;;;;4956478;29;20242;-85
2022/02/27 01:44:13;;;;;;;16.52;9.50;;;1.40;99.90;;;;;;4953249;29;20221;-86
2022/02/27 01:46:58;;;;;;;15.57;8.60;;;1.40;99.90;;;;;;4948737;29;20199;-86
2022/02/27 01:49:25;;;;;;;10.32;6.82;;;1.40;99.90;;;;;;4951709;29;20191;-85
2022/02/27 01:51:52;;;;;;;9.77;7.68;;;1.40;99.90;;;;;;4951982;29;20628;-86
2022/02/27 01:54:19;;;;;;;14.90;8.30;;;1.50;99.90;;;;;;4956528;29;20214;-85
2022/02/27 01:56:46;;;;;;;17.38;8.40;;;1.50;99.90;;;;;;4954413;28;20227;-85
2022/02/27 01:59:14;;;;;;;11.82;8.10;;;1.40;99.90;;;;;;4950782;29;20239;-86
2022/02/27 02:01:41;;;;;;;13.35;7.65;;;1.50;99.90;;;;;;4951933;29;20223;-85
2022/02/27 02:04:08;;;;;;;13.70;8.25;;;1.50;99.90;;;;;;4951713;29;20207;-86
2022/02/27 02:06:34;;;;;;;11.32;9.13;;;1.50;99.90;;;;;;4946151;29;20271;-85
2022/02/27 02:09:02;;;;;;;20.40;8.65;;;1.50;99.90;;;;;;4945728;29;20310;-85
2022/02/27 02:11:29;;;;;;;14.98;9.75;;;1.50;99.90;;;;;;4945708;29;20227;-85
2022/02/27 02:13:56;;;;;;;18.33;9.25;;;1.70;99.90;;;;;;4958765;29;20224;-84
2022/02/27 02:16:24;;;;;;;13.73;7.78;;;1.50;99.90;;;;;;4957520;29;20218;-83
2022/02/27 02:18:51;;;;;;;15.90;8.55;;;1.40;99.90;;;;;;4951470;29;20210;-85
2022/02/27 02:21:21;;;;;;;11.63;7.65;;;1.30;99.90;;;;;;4948201;29;20227;-85
2022/02/27 02:23:48;;;;;;;10.88;7.75;;;1.40;99.90;;;;;;4953949;28;20176;-83
2022/02/27 02:26:15;;;;;;;14.55;7.80;;;1.60;99.90;;;;;;4960656;28;20195;-82
2022/02/27 02:28:41;;;;;;;15.48;7.93;;;1.50;99.90;;;;;;4960904;28;20235;-82
2022/02/27 02:31:08;;;;;;;11.65;7.40;;;1.60;99.90;;;;;;4959957;28;20211;-83
2022/02/27 02:33:36;;;;;;;11.68;7.30;;;1.50;99.90;;;;;;4959580;28;20187;-84
2022/02/27 02:36:03;;;;;;;10.93;6.95;;;1.60;99.90;;;;;;4957231;29;20203;-84
2022/02/27 02:38:31;;;;;;;9.70;7.75;;;1.10;99.90;;;;;;4947106;29;20249;-85
2022/02/27 02:40:58;;;;;;;15.65;8.50;;;1.30;99.90;;;;;;4945622;29;20231;-85
2022/02/27 02:43:25;;;;;;;10.68;7.90;;;1.40;99.90;;;;;;4945248;29;20219;-85
2022/02/27 02:45:51;;;;;;;11.02;8.15;;;1.70;99.90;;;;;;4944744;29;20218;-85
2022/02/27 02:48:18;;;;;;;11.15;7.25;;;1.40;99.90;;;;;;4944072;29;20275;-85
2022/02/27 02:50:46;;;;;;;10.35;7.00;;;1.20;99.90;;;;;;4944979;29;20238;-85
2022/02/27 02:53:12;;;;;;;15.30;8.63;;;1.30;99.90;;;;;;4945057;29;20207;-86
2022/02/27 02:55:40;;;;;;;14.93;7.82;;;1.30;99.90;;;;;;4945530;29;20210;-86
2022/02/27 02:58:07;;;;;;;15.15;8.55;;;1.30;99.90;;;;;;4945198;29;20298;-84
2022/02/27 03:00:34;;;;;;;11.07;6.50;;;1.40;99.90;;;;;;4947009;29;20246;-86
2022/02/27 03:03:00;;;;;;;10.70;6.53;;;1.30;99.90;;;;;;4943381;29;20204;-84
2022/02/27 03:05:27;;;;;;;11.57;8.00;;;1.20;99.90;;;;;;4944009;29;20210;-85
2022/02/27 03:07:54;;;;;;;14.88;8.15;;;1.30;99.90;;;;;;4944681;29;20211;-85
2022/02/27 03:10:21;;;;;;;12.43;7.78;;;1.30;99.90;;;;;;4944803;29;20231;-85
2022/02/27 03:58:23;;;;;;;13.40;7.38;;;0.80;99.90;;;;;;4873307;23;20778;-89
2022/02/27 04:00:50;;;;;;;15.82;8.88;;;0.90;99.90;;;;;;4946779;29;20199;-89
2022/02/27 04:03:16;;;;;;;10.48;7.75;;;1.00;99.90;;;;;;4946327;29;20671;-89
2022/02/27 04:05:43;;;;;;;14.63;7.90;;;1.10;99.90;;;;;;4948957;29;20244;-89
2022/02/27 04:08:10;;;;;;;13.40;6.97;;;1.10;99.90;;;;;;4950227;29;20254;-89
2022/02/27 04:10:37;;;;;;;11.35;6.95;;;1.00;99.90;;;;;;4947031;29;20214;-89
2022/02/27 04:13:04;;;;;;;9.85;6.60;;;0.90;99.90;;;;;;4945364;29;20225;-89
2022/02/27 04:15:33;;;;;;;15.10;7.90;;;0.90;99.90;;;;;;4944998;29;20213;-89
2022/02/27 04:17:59;;;;;;;10.63;7.22;;;1.10;99.90;;;;;;4944509;29;20238;-90
2022/02/27 04:20:26;;;;;;;11.27;6.93;;;0.90;99.90;;;;;;4945377;29;20207;-89
2022/02/27 04:22:53;;;;;;;11.98;7.78;;;1.10;99.90;;;;;;4944193;29;20218;-89
2022/02/27 04:25:21;;;;;;;18.05;8.10;;;0.70;99.90;;;;;;4944248;29;20670;-89
2022/02/27 04:27:48;;;;;;;14.00;7.70;;;1.00;99.90;;;;;;4945978;29;20259;-89
2022/02/27 04:30:15;;;;;;;12.48;6.80;;;1.00;99.90;;;;;;4945536;29;20207;-89
2022/02/27 04:32:43;;;;;;;11.75;7.80;;;1.00;99.90;;;;;;4945146;29;20247;-89
2022/02/27 04:35:09;;;;;;;12.88;8.15;;;1.00;99.90;;;;;;4947872;29;20239;-89
2022/02/27 04:37:38;;;;;;;12.50;8.05;;;1.00;99.90;;;;;;4946094;29;20710;-90
2022/02/27 04:40:06;;;;;;;13.95;7.30;;;1.00;99.90;;;;;;4962891;28;20191;-90
2022/02/27 04:42:33;;;;;;;10.57;7.40;;;1.00;99.90;;;;;;4963016;28;20195;-91
2022/02/27 04:45:01;;;;;;;11.52;7.68;;;1.10;99.90;;;;;;4962868;28;20218;-90
2022/02/27 04:47:27;;;;;;;17.58;8.88;;;1.10;99.90;;;;;;4962961;28;20219;-91
2022/02/27 04:49:55;;;;;;;12.70;9.02;;;1.10;99.90;;;;;;4955485;28;20203;-90
2022/02/27 04:52:22;;;;;;;12.38;7.88;;;1.10;99.90;;;;;;4961976;29;20206;-89
2022/02/27 04:54:49;;;;;;;15.57;9.48;;;1.10;99.90;;;;;;4961441;28;20211;-89
2022/02/27 04:57:15;;;;;;;12.30;7.70;;;1.30;99.90;;;;;;4961674;29;20218;-89
2022/02/27 04:59:42;;;;;;;13.57;8.27;;;1.00;99.90;;;;;;4961435;28;20208;-89
2022/02/27 05:02:09;;;;;;;11.05;7.95;;;1.00;99.90;;;;;;4962521;28;20191;-90
2022/02/27 05:04:35;;;;;;;11.70;7.70;;;1.20;99.90;;;;;;4962643;28;20191;-89
2022/02/27 05:07:04;;;;;;;14.00;7.90;;;1.00;99.90;;;;;;4962623;28;20194;-89
2022/02/27 05:09:31;;;;;;;9.60;7.88;;;0.80;99.90;;;;;;4958810;28;20244;-88
2022/02/27 05:11:58;;;;;;;11.95;7.53;;;1.00;99.90;;;;;;4947292;29;20206;-89
2022/02/27 05:14:24;;;;;;;14.30;9.45;;;1.00;99.90;;;;;;4949554;29;20219;-89
2022/02/27 05:16:51;;;;;;;21.48;8.90;;;1.00;99.90;;;;;;4949383;29;20206;-88
2022/02/27 05:19:18;;;;;;;13.70;7.07;;;1.00;99.90;;;;;;4947654;29;20227;-88
2022/02/27 05:21:45;;;;;;;16.27;8.40;;;1.00;99.90;;;;;;4945934;29;20210;-88
2022/02/27 05:24:13;;;;;;;10.30;7.80;;;1.00;99.90;;;;;;4943913;29;20207;-88
2022/02/27 05:26:40;;;;;;;11.18;7.75;;;1.00;99.90;;;;;;4942244;29;20223;-88
2022/02/27 05:29:06;;;;;;;10.43;7.05;;;0.90;99.90;;;;;;4941404;29;20830;-88
2022/02/27 05:31:33;;;;;;;13.15;8.35;;;0.90;99.90;;;;;;4947448;29;20215;-88
2022/02/27 05:34:01;;;;;;;17.25;9.05;;;1.00;99.90;;;;;;4961604;28;20244;-89
2022/02/27 05:36:28;;;;;;;11.32;8.70;;;0.80;99.90;;;;;;4962190;28;20209;-89
2022/02/27 05:38:55;;;;;;;10.57;7.88;;;0.90;99.90;;;;;;4961131;28;20233;-88
2022/02/27 05:41:23;;;;;;;26.90;9.88;;;0.90;99.90;;;;;;4961549;28;20191;-89
2022/02/27 05:43:50;;;;;;;12.15;8.32;;;0.90;99.90;;;;;;4961330;29;20251;-88
2022/02/27 05:46:16;;;;;;;15.20;9.13;;;0.90;99.90;;;;;;4959376;29;20246;-88
2022/02/27 05:48:43;;;;;;;15.52;8.27;;;0.90;99.90;;;;;;4960909;28;20227;-89
2022/02/27 05:51:09;;;;;;;15.10;8.13;;;0.90;99.90;;;;;;4959445;28;20257;-87
2022/02/27 05:53:36;;;;;;;11.15;9.13;;;0.90;99.90;;;;;;4953113;29;20203;-87
2022/02/27 05:56:03;;;;;;;10.63;8.23;;;0.90;99.90;;;;;;4944094;29;20203;-87
2022/02/27 05:58:32;;;;;;;11.65;9.30;;;0.90;99.90;;;;;;4943307;29;20309;-88
2022/02/27 06:00:59;;;;;;;14.75;9.45;;;0.90;99.90;;;;;;4942961;29;20229;-88
2022/02/27 06:03:26;;;;;;;11.43;8.57;;;1.00;99.90;;;;;;4942484;29;20207;-88
2022/02/27 06:05:53;;;;;;;11.30;7.72;;;1.10;99.90;;;;;;4944518;29;20207;-88
2022/02/27 06:08:19;;;;;;;14.00;9.10;;;0.90;99.90;;;;;;4943196;29;20250;-88
2022/02/27 06:10:46;;;;;;;20.63;8.80;;;0.90;99.90;;;;;;4943248;29;20207;-88
2022/02/27 06:13:13;;;;;;;13.52;9.05;;;0.90;99.90;;;;;;4941446;29;20266;-88
2022/02/27 06:15:41;;;;;;;16.88;8.70;;;0.90;99.90;;;;;;4941445;29;20207;-89
2022/02/27 06:18:08;;;;;;;13.07;8.00;;;0.90;99.90;;;;;;4940670;29;20227;-89
2022/02/27 06:20:34;;;;;;;14.65;9.13;;;0.90;99.90;;;;;;4944838;29;20277;-89
2022/02/27 06:23:01;;;;;;;16.05;8.82;;;0.70;99.90;;;;;;4943844;29;20211;-89
2022/02/27 06:25:28;;;;;;;16.80;8.13;;;1.00;99.90;;;;;;4941765;29;20266;-89
2022/02/27 06:27:54;;;;;;;13.88;8.70;;;1.00;99.90;;;;;;4939974;29;20710;-89
2022/02/27 06:30:23;;;;;;;9.40;8.00;;;0.80;99.90;;;;;;4940393;29;20245;-89
2022/02/27 06:32:52;;;;;;;15.85;9.50;;;0.90;99.90;;;;;;4940007;29;20211;-89
2022/02/27 06:35:21;;;;;;;25.50;12.05;;;1.00;99.90;;;;;;4940651;29;20207;-89
2022/02/27 06:37:48;;;;;;;19.45;9.57;;;0.90;99.90;;;;;;4940680;29;20223;-89
2022/02/27 06:40:18;;;;;;;19.67;9.88;;;1.00;99.90;;;;;;4940749;29;20218;-89
2022/02/27 06:42:45;;;;;;;19.17;8.60;;;1.00;99.90;;;;;;4940090;29;20213;-89
2022/02/27 06:45:12;;;;;;;15.75;9.13;;;1.00;99.90;;;;;;4939450;29;20749;-89
2022/02/27 06:47:39;;;;;;;12.18;8.70;;;1.00;99.90;;;;;;4939494;29;20227;-89
2022/02/27 06:50:09;;;;;;;17.15;9.65;;;1.00;99.90;;;;;;4939703;29;20231;-89
2022/02/27 06:52:36;;;;;;;14.65;9.43;;;1.00;99.90;;;;;;4939878;29;20211;-89
2022/02/27 06:55:03;;;;;;;16.73;9.43;;;0.90;99.90;;;;;;4939151;29;20226;-88
2022/02/27 06:57:30;;;;;;;17.80;10.45;;;0.80;99.90;;;;;;4940859;29;20512;-88
2022/02/27 06:59:58;;;;;;;15.15;9.80;;;0.90;99.90;;;;;;4942470;29;20192;-88
2022/02/27 07:02:25;;;;;;;16.50;9.45;;;0.90;99.90;;;;;;4940857;29;20207;-89
2022/02/27 07:04:54;;;;;;;15.73;10.00;;;0.90;99.90;;;;;;4945933;29;20205;-89
2022/02/27 07:07:22;;;;;;;13.55;9.93;;;0.80;99.90;;;;;;4960102;28;20225;-88
2022/02/27 07:09:49;;;;;;;15.23;10.02;;;0.80;99.90;;;;;;4959537;28;20195;-88
2022/02/27 07:12:16;;;;;;;14.38;9.80;;;0.80;99.90;;;;;;4954595;28;20681;-88
2022/02/27 07:14:43;;;;;;;17.15;11.18;;;1.20;99.90;;;;;;4942871;29;20203;-89
2022/02/27 07:17:10;;;;;;;14.15;9.32;;;0.80;99.90;;;;;;4941737;29;20298;-88
2022/02/27 07:19:39;;;;;;;18.02;9.63;;;0.80;99.90;;;;;;4941266;29;20230;-88
2022/02/27 07:22:06;;;;;;;14.75;9.93;;;0.80;99.90;;;;;;4951200;29;20260;-88
2022/02/27 07:24:34;;;;;;;20.50;9.80;;;0.90;99.90;;;;;;4957784;28;20222;-88
2022/02/27 07:27:01;;;;;;;14.07;9.68;;;0.90;99.90;;;;;;4958658;29;20290;-88
2022/02/27 07:29:28;;;;;;;19.10;10.25;;;1.00;99.90;;;;;;4958584;28;20239;-88
2022/02/27 07:31:54;;;;;;;17.58;10.20;;;1.00;99.90;;;;;;4953533;29;20207;-87
2022/02/27 07:34:21;;;;;;;14.60;10.25;;;1.00;99.90;;;;;;4941380;29;20730;-88
2022/02/27 07:36:51;;;;;;;18.75;10.25;;;1.10;99.90;;;;;;4945952;29;20235;-88
2022/02/27 07:39:17;;;;;;;17.33;9.75;;;1.20;99.90;;;;;;4948069;29;20262;-89
2022/02/27 07:41:45;;;;;;;14.48;10.10;;;1.20;99.90;;;;;;4943839;29;20558;-88
2022/02/27 07:44:12;;;;;;;16.17;9.90;;;1.20;99.90;;;;;;4941994;29;20266;-88
2022/02/27 07:46:39;;;;;;;19.23;10.40;;;1.60;99.90;;;;;;4942206;29;20262;-88
2022/02/27 07:49:05;;;;;;;17.77;9.30;;;1.30;99.90;;;;;;4941588;29;20286;-89
2022/02/27 07:51:32;;;;;;;16.35;9.93;;;1.40;99.90;;;;;;4942514;29;20218;-88
2022/02/27 07:53:59;;;;;;;13.77;9.07;;;1.40;99.90;;;;;;4947724;29;20207;-90
2022/02/27 07:56:26;;;;;;;13.95;9.98;;;1.60;99.90;;;;;;4947267;29;20211;-89
2022/02/27 07:58:54;;;;;;;19.10;10.82;;;0.80;99.90;;;;;;4948120;29;20235;-88
2022/02/27 08:01:21;;;;;;;18.98;10.93;;;1.40;99.90;;;;;;4951978;29;20207;-88
2022/02/27 08:03:48;;;;;;;16.48;11.35;;;1.30;99.90;;;;;;4953353;29;20221;-87
2022/02/27 08:06:15;;;;;;;22.48;13.48;;;1.30;99.90;;;;;;4958076;29;20207;-89
2022/02/27 08:08:42;;;;;;;19.52;13.38;;;1.40;99.90;;;;;;4959478;28;20333;-88
2022/02/27 08:11:11;;;;;;;22.20;13.07;;;1.30;99.90;;;;;;4962581;28;20266;-88
2022/02/27 08:13:37;;;;;;;22.90;13.52;;;1.30;99.90;;;;;;4951783;29;20298;-88
2022/02/27 08:16:06;;;;;;;23.05;12.00;;;1.30;99.90;;;;;;4959496;28;20207;-88
2022/02/27 08:18:33;;;;;;;29.60;14.02;;;1.50;99.90;;;;;;4962546;28;20219;-88
2022/02/27 08:21:00;;;;;;;23.67;13.80;;;1.40;99.90;;;;;;4954989;29;20211;-89
2022/02/27 08:23:27;;;;;;;22.80;14.43;;;1.30;99.90;;;;;;4950682;29;20218;-89
2022/02/27 08:25:55;;;;;;;29.58;14.48;;;1.20;99.90;;;;;;4957002;29;20210;-89
2022/02/27 08:28:23;;;;;;;25.73;16.10;;;1.30;99.90;;;;;;4959477;29;20226;-88
2022/02/27 08:30:50;;;;;;;26.40;15.18;;;1.20;99.90;;;;;;4961400;29;20195;-89
2022/02/27 08:33:18;;;;;;;23.90;14.80;;;1.10;99.90;;;;;;4959519;29;20211;-87
2022/02/27 08:35:44;;;;;;;29.77;16.52;;;1.10;99.90;;;;;;4958554;29;20195;-89
2022/02/27 08:38:11;;;;;;;25.58;14.15;;;1.10;99.90;;;;;;4957818;29;20247;-89
2022/02/27 08:40:40;;;;;;;28.38;13.90;;;1.10;99.90;;;;;;4958030;29;20203;-89
2022/02/27 08:43:07;;;;;;;23.52;13.80;;;1.20;99.90;;;;;;4958954;29;20219;-88
2022/02/27 08:45:34;;;;;;;22.65;13.90;;;1.30;99.90;;;;;;4960115;29;20206;-90
2022/02/27 08:48:03;;;;;;;21.15;12.75;;;1.10;99.90;;;;;;4958073;29;20227;-89
2022/02/27 08:50:31;;;;;;;26.35;16.50;;;1.20;99.90;;;;;;4954395;29;20207;-90
2022/02/27 08:52:58;;;;;;;26.17;15.23;;;1.20;99.90;;;;;;4952401;29;20218;-84
2022/02/27 08:55:24;;;;;;;24.15;16.27;;;1.30;99.90;;;;;;4949452;29;20242;-85
2022/02/27 08:57:51;;;;;;;26.10;16.40;;;1.40;99.90;;;;;;4949987;29;20242;-86
2022/02/27 09:00:18;;;;;;;29.38;16.50;;;1.40;99.90;;;;;;4954263;29;20262;-86
2022/02/27 09:02:46;;;;;;;24.77;15.88;;;1.40;99.90;;;;;;4957100;29;20203;-86
2022/02/27 09:05:13;;;;;;;27.63;15.75;;;1.50;99.90;;;;;;4958032;29;20241;-86
2022/02/27 09:07:42;;;;;;;22.85;13.55;;;1.40;99.90;;;;;;4957800;29;20227;-85
2022/02/27 09:10:12;;;;;;;24.48;14.82;;;1.40;99.90;;;;;;4956742;29;20211;-86
2022/02/27 09:12:40;;;;;;;29.30;14.75;;;1.30;99.90;;;;;;4955026;29;20199;-85
2022/02/27 09:15:07;;;;;;;26.00;14.70;;;1.50;99.90;;;;;;4957047;29;20207;-85
2022/02/27 09:17:34;;;;;;;26.83;16.50;;;1.60;99.90;;;;;;4958796;29;20227;-86
2022/02/27 09:20:01;;;;;;;28.20;14.18;;;1.50;99.90;;;;;;4958906;29;20231;-85
2022/02/27 09:22:28;;;;;;;25.10;14.30;;;1.40;99.90;;;;;;4957646;29;20207;-85
2022/02/27 09:24:55;;;;;;;22.13;15.25;;;1.50;99.90;;;;;;4958278;28;20199;-86
2022/02/27 09:27:22;;;;;;;27.92;16.02;;;1.40;99.90;;;;;;4958666;29;20207;-85
2022/02/27 09:29:49;;;;;;;27.70;16.10;;;1.50;99.90;;;;;;4960682;29;20221;-85
2022/02/27 09:32:16;;;;;;;21.98;13.38;;;1.50;99.90;;;;;;4961321;28;20211;-86
2022/02/27 09:34:42;;;;;;;27.67;16.30;;;1.60;99.90;;;;;;4956488;29;20219;-86
2022/02/27 09:37:09;;;;;;;25.45;15.80;;;1.70;99.90;;;;;;4953852;29;20203;-87
2022/02/27 09:39:37;;;;;;;29.60;14.18;;;1.60;99.90;;;;;;4955516;29;20218;-86
2022/02/27 09:42:06;;;;;;;36.55;21.13;;;1.60;99.90;;;;;;4958654;29;20211;-86
2022/02/27 09:44:38;;;;;;;25.25;15.80;;;1.50;99.90;;;;;;4958512;29;20194;-86
2022/02/27 09:47:05;;;;;;;25.50;16.50;;;;;;;;;;4957342;29;20258;-87
2022/02/27 09:49:32;;;;;;;31.17;18.88;;;1.70;99.90;;;;;;4954965;29;20441;-87
2022/02/27 09:51:58;;;;;;;24.08;15.88;;;2.10;99.90;;;;;;4957208;29;20207;-85
2022/02/27 09:54:26;;;;;;;28.92;16.92;;;1.30;99.90;;;;;;4960761;28;20195;-86
2022/02/27 09:56:53;;;;;;;27.17;16.30;;;1.80;99.90;;;;;;4960070;28;20207;-85
2022/02/27 10:06:29;;;;;;;28.55;17.85;;;2.00;99.90;;;;;;4914646;29;20207;-89
2022/02/27 10:09:53;;;;;;;27.77;16.63;;;1.20;99.90;;;;;;4926667;29;20227;-87
2022/02/27 10:26:29;;;;;;;;;;;;;;;;;;;;;
2022/02/27 11:41:20;;;;;;;37.13;22.02;;;3.30;99.90;;;;;;4991320;28;20225;-86
2022/02/27 11:43:50;;;;;;;33.25;19.88;;;3.50;99.90;;;;;;4988324;28;20213;-85
2022/02/27 11:46:31;;;;;;;36.67;21.73;;;3.50;99.90;;;;;;4988438;28;20201;-86
2022/02/27 11:49:01;;;;;;;37.08;21.92;;;3.50;99.90;;;;;;4986411;28;20190;-85
2022/02/27 11:51:51;;;;;;;33.05;20.73;;;3.60;99.90;;;;;;4970755;28;20206;-85
2022/02/27 11:54:20;;;;;;;35.10;21.35;;;3.60;99.90;;;;;;4971766;29;20255;-86
2022/02/27 11:57:06;;;;;;;41.15;21.83;;;3.70;99.90;;;;;;4982503;28;20214;-83
2022/02/27 11:59:57;;;;;;;38.08;22.20;;;4.00;99.90;;;;;;4982629;28;20258;-85
2022/02/27 12:02:33;;;;;;;33.40;21.23;;;4.00;99.90;;;;;;4981891;28;20202;-85
2022/02/27 12:05:02;;;;;;;33.85;21.42;;;3.80;99.90;;;;;;4974061;29;20222;-85
2022/02/27 12:07:29;;;;;;;40.70;23.60;;;3.60;99.90;;;;;;4971245;29;20210;-85
2022/02/27 12:10:02;;;;;;;36.35;21.55;;;4.00;99.90;;;;;;4967558;28;20246;-85
2022/02/27 12:12:49;;;;;;;35.33;22.40;;;4.10;99.90;;;;;;4972819;29;20194;-86
2022/02/27 12:15:21;;;;;;;36.55;21.48;;;3.90;99.90;;;;;;4970280;29;20206;-85
2022/02/27 12:18:01;;;;;;;42.25;23.42;;;4.00;99.90;;;;;;4970061;29;20206;-85
2022/02/27 12:20:51;;;;;;;38.78;22.92;;;4.10;99.90;;;;;;4968166;28;20661;-85
2022/02/27 12:23:47;;;;;;;38.45;24.98;;;4.00;99.90;;;;;;4978012;29;20193;-85
2022/02/27 12:26:53;;;;;;;36.50;21.95;;;3.90;99.90;;;;;;4978711;29;20225;-85
2022/02/27 12:29:31;;;;;;;38.20;21.23;;;3.80;99.90;;;;;;4972589;28;20229;-85
2022/02/27 12:32:08;;;;;;;36.20;21.92;;;3.80;99.90;;;;;;4967041;29;20218;-85
2022/02/27 12:34:36;;;;;;;39.92;21.45;;;3.90;99.90;;;;;;4965849;29;20724;-85
2022/02/27 12:37:04;;;;;;;35.92;22.45;;;4.10;99.90;;;;;;4966039;29;20242;-86
2022/02/27 12:39:34;;;;;;;36.95;23.33;;;4.00;99.90;;;;;;4964559;28;20277;-85
2022/02/27 12:42:01;;;;;;;35.83;21.67;;;4.10;99.90;;;;;;4966699;29;20623;-85
2022/02/27 12:44:31;;;;;;;33.17;21.42;;;4.10;99.90;;;;;;4965741;29;20223;-85
2022/02/27 12:46:59;;;;;;;39.72;25.88;;;4.00;99.90;;;;;;4970124;29;20209;-85
2022/02/27 12:52:12;;;;;;;39.53;24.10;;;3.90;99.90;;;;;;4980800;29;20214;-85
2022/02/27 12:54:39;;;;;;;41.92;24.13;;;4.10;99.90;;;;;;4981942;28;20198;-85
2022/02/27 12:59:54;;;;;;;39.97;23.92;;;5.40;99.90;;;;;;4978032;28;20230;-86
2022/02/27 13:02:22;;;;;;;37.42;23.40;;;4.10;99.90;;;;;;4981026;28;20198;-85
2022/02/27 13:04:49;;;;;;;38.95;23.20;;;4.40;99.90;;;;;;4980654;29;20265;-85
2022/02/27 13:07:18;;;;;;;43.17;25.67;;;4.30;99.90;;;;;;4973859;29;20236;-86
2022/02/27 13:09:47;;;;;;;33.40;23.23;;;5.90;99.90;;;;;;4970127;28;20233;-86
2022/02/27 13:12:16;;;;;;;43.17;25.40;;;4.10;99.90;;;;;;4974420;28;20202;-85
2022/02/27 13:14:45;;;;;;;42.03;24.80;;;4.20;99.90;;;;;;4975153;29;20250;-85
2022/02/27 13:17:15;;;;;;;39.67;23.25;;;4.20;99.90;;;;;;4968614;29;20276;-86
2022/02/27 13:19:42;;;;;;;35.28;23.42;;;4.20;99.90;;;;;;4967801;28;20278;-86
2022/02/27 13:22:10;;;;;;;41.20;25.67;;;4.40;99.90;;;;;;4966518;29;20206;-85
2022/02/27 13:24:40;;;;;;;39.13;22.45;;;4.40;99.90;;;;;;4966898;29;20207;-86
2022/02/27 13:27:09;;;;;;;37.58;24.15;;;4.40;99.90;;;;;;4966343;29;20615;-86
2022/02/27 13:29:49;;;;;;;37.92;25.08;;;4.20;99.90;;;;;;4968254;28;20223;-86
2022/02/27 13:32:22;;;;;;;39.92;25.13;;;4.00;99.90;;;;;;4967287;29;20214;-86
2022/02/27 13:34:51;;;;;;;43.55;24.85;;;4.00;99.90;;;;;;4966902;29;20218;-86
2022/02/27 13:37:26;;;;;;;31.30;22.15;;;4.00;99.90;;;;;;4967396;29;20203;-86
2022/02/27 13:40:01;;;;;;;30.77;21.10;;;4.00;99.90;;;;;;4967145;28;20229;-86
2022/02/27 13:42:30;;;;;;;40.58;23.88;;;;;;;;;;4969376;29;20194;-86
2022/02/27 13:44:57;;;;;;;37.38;23.88;;;4.00;99.90;;;;;;4968738;29;20234;-86
2022/02/27 13:47:27;;;;;;;35.10;21.92;;;3.90;99.90;;;;;;4971797;29;20206;-85
2022/02/27 13:49:55;;;;;;;36.97;22.85;;;4.00;99.90;;;;;;4976107;28;20263;-85
2022/02/27 13:52:23;;;;;;;38.85;25.02;;;3.60;99.90;;;;;;4974740;29;20459;-85
2022/02/27 13:54:52;;;;;;;44.88;27.48;;;4.00;99.90;;;;;;4975731;29;20273;-86
2022/02/27 13:57:19;;;;;;;40.88;24.73;;;3.90;99.90;;;;;;4976726;28;20194;-86
2022/02/27 13:59:49;;;;;;;36.13;25.27;;;3.90;99.90;;;;;;4976761;28;20237;-85
2022/02/27 14:02:33;;;;;;;42.95;24.77;;;3.90;99.90;;;;;;4980283;28;20199;-85
2022/02/27 14:05:15;;;;;;;42.00;25.25;;;4.10;99.90;;;;;;4977961;28;20186;-85
2022/02/27 14:07:43;;;;;;;47.08;27.75;;;4.40;99.90;;;;;;4975743;28;20218;-85
2022/02/27 14:10:11;;;;;;;38.63;25.83;;;4.40;99.90;;;;;;4979802;28;20206;-85
2022/02/27 14:12:56;;;;;;;40.03;24.98;;;4.40;99.90;;;;;;4977590;29;20210;-85
2022/02/27 14:15:29;;;;;;;38.80;25.40;;;4.30;99.90;;;;;;4974474;29;20194;-85
2022/02/27 14:17:58;;;;;;;37.53;23.25;;;4.10;99.90;;;;;;4979025;28;20191;-85
2022/02/27 14:20:32;;;;;;;36.67;22.33;;;3.90;99.90;;;;;;4978688;28;20233;-86
2022/02/27 14:23:09;;;;;;;37.97;23.58;;;3.70;99.90;;;;;;4975811;29;20205;-86
2022/02/27 14:25:40;;;;;;;43.80;24.88;;;3.80;99.90;;;;;;4972690;29;20286;-85
2022/02/27 14:28:11;;;;;;;37.38;22.85;;;3.70;99.90;;;;;;4974275;29;20178;-85
2022/02/27 14:30:38;;;;;;;37.70;21.88;;;3.80;99.90;;;;;;4973735;28;20226;-85
2022/02/27 14:33:08;;;;;;;36.30;22.35;;;3.70;99.90;;;;;;4972402;29;20206;-86
2022/02/27 14:35:35;;;;;;;39.55;23.10;;;3.80;99.90;;;;;;4973024;29;20210;-85
2022/02/27 14:38:02;;;;;;;41.22;23.98;;;3.80;99.90;;;;;;4970288;29;20225;-86
2022/02/27 14:40:29;;;;;;;35.42;21.95;;;3.80;99.90;;;;;;4977758;28;20218;-85
2022/02/27 14:42:56;;;;;;;34.40;22.52;;;3.80;99.90;;;;;;4978649;29;20210;-85
2022/02/27 14:45:23;;;;;;;40.50;24.30;;;3.90;99.90;;;;;;4976498;29;20212;-85
2022/02/27 14:47:50;;;;;;;41.65;24.83;;;3.70;99.90;;;;;;4978246;29;20262;-86
2022/02/27 14:50:18;;;;;;;35.25;22.48;;;3.60;99.90;;;;;;4978279;28;20245;-86
2022/02/27 14:52:46;;;;;;;42.47;24.60;;;3.30;99.90;;;;;;4972424;29;20206;-85
2022/02/27 14:55:13;;;;;;;48.17;25.45;;;3.50;99.90;;;;;;4967952;29;20225;-86
2022/02/27 14:57:40;;;;;;;42.53;21.58;;;3.50;99.90;;;;;;4967632;29;20214;-85
2022/02/27 15:00:10;;;;;;;34.45;20.50;;;3.50;99.90;;;;;;4967730;28;20261;-85
2022/02/27 15:02:37;;;;;;;44.25;23.10;;;;;;;;;;4968659;29;20270;-86
2022/02/27 15:05:05;;;;;;;35.35;22.00;;;3.40;99.90;;;;;;4965500;29;20232;-86
2022/02/27 15:07:33;;;;;;;44.42;24.38;;;3.40;99.90;;;;;;4966242;29;20262;-85
2022/02/27 15:10:01;;;;;;;38.90;23.00;;;3.20;99.90;;;;;;4966010;28;20591;-85
2022/02/27 15:12:27;;;;;;;42.33;24.85;;;3.20;99.90;;;;;;4966881;29;20221;-85
2022/02/27 15:14:54;;;;;;;38.95;23.90;;;;;;;;;;4966271;29;20211;-84
2022/02/27 15:17:22;;;;;;;35.80;20.73;;;3.00;99.90;;;;;;4968626;29;20234;-86